sensor_id;sensor_type;location;lat;lon;timestamp;P1;durP1;ratioP1;P2;durP2;ratioP2
11279;SDS011;5696;50.928;6.960;2023-02-08T06:01:54;11.02;;;8.50;;
11279;SDS011;5696;50.928;6.960;2023-02-08T06:04:20;13.52;;;8.75;;
11279;SDS011;5696;50.928;6.960;2023-02-08T06:06:46;11.00;;;8.85;;
11279;SDS011;5696;50.928;6.960;2023-02-08T06:09:11;19.23;;;15.15;;
11279;SDS011;5696;50.928;6.960;2023-02-08T06:11:37;14.60;;;8.80;;
11279;SDS011;5696;50.928;6.960;2023-02-08T06:14:02;13.80;;;10.15;;
11279;SDS011;5696;50.928;6.960;2023-02-08T06:16:28;13.88;;;9.25;;
11279;SDS011;5696;50.928;6.960;2023-02-08T06:18:54;15.05;;;9.45;;
11279;SDS011;5696;50.928;6.960;2023-02-08T06:21:19;11.60;;;9.52;;
11279;SDS011;5696;50.928;6.960;2023-02-08T06:23:45;15.95;;;11.05;;
11279;SDS011;5696;50.928;6.960;2023-02-08T06:26:11;14.13;;;10.65;;
11279;SDS011;5696;50.928;6.960;2023-02-08T06:28:36;15.75;;;10.50;;
11279;SDS011;5696;50.928;6.960;2023-02-08T06:31:02;17.50;;;12.05;;
11279;SDS011;5696;50.928;6.960;2023-02-08T06:33:27;16.23;;;11.40;;
11279;SDS011;5696;50.928;6.960;2023-02-08T06:35:53;29.63;;;21.40;;
11279;SDS011;5696;50.928;6.960;2023-02-08T06:38:19;12.00;;;9.02;;
11279;SDS011;5696;50.928;6.960;2023-02-08T06:40:48;12.32;;;8.75;;
11279;SDS011;5696;50.928;6.960;2023-02-08T06:43:14;14.05;;;9.77;;
11279;SDS011;5696;50.928;6.960;2023-02-08T06:45:43;11.85;;;9.05;;
11279;SDS011;5696;50.928;6.960;2023-02-08T06:48:10;12.15;;;8.77;;
11279;SDS011;5696;50.928;6.960;2023-02-08T06:50:35;11.45;;;8.32;;
11279;SDS011;5696;50.928;6.960;2023-02-08T06:53:02;10.00;;;8.18;;
11279;SDS011;5696;50.928;6.960;2023-02-08T06:55:28;10.65;;;8.63;;
11279;SDS011;5696;50.928;6.960;2023-02-08T06:57:54;13.40;;;8.52;;
11279;SDS011;5696;50.928;6.960;2023-02-08T07:00:20;10.50;;;7.45;;
11279;SDS011;5696;50.928;6.960;2023-02-08T07:02:45;11.57;;;8.75;;
11279;SDS011;5696;50.928;6.960;2023-02-08T07:05:12;10.52;;;7.88;;
11279;SDS011;5696;50.928;6.960;2023-02-08T07:07:38;12.73;;;7.95;;
11279;SDS011;5696;50.928;6.960;2023-02-08T07:10:04;12.82;;;8.63;;
11279;SDS011;5696;50.928;6.960;2023-02-08T07:12:33;9.68;;;8.38;;
11279;SDS011;5696;50.928;6.960;2023-02-08T07:15:00;11.55;;;7.70;;
11279;SDS011;5696;50.928;6.960;2023-02-08T07:17:26;14.02;;;8.23;;
11279;SDS011;5696;50.928;6.960;2023-02-08T07:19:51;11.05;;;8.32;;
11279;SDS011;5696;50.928;6.960;2023-02-08T07:22:17;10.25;;;7.57;;
11279;SDS011;5696;50.928;6.960;2023-02-08T07:24:43;12.55;;;8.23;;
11279;SDS011;5696;50.928;6.960;2023-02-08T07:27:09;9.57;;;7.75;;
11279;SDS011;5696;50.928;6.960;2023-02-08T07:29:36;14.15;;;10.00;;
11279;SDS011;5696;50.928;6.960;2023-02-08T07:32:03;13.30;;;8.10;;
11279;SDS011;5696;50.928;6.960;2023-02-08T07:34:31;10.70;;;7.68;;
11279;SDS011;5696;50.928;6.960;2023-02-08T07:36:58;9.73;;;7.80;;
11279;SDS011;5696;50.928;6.960;2023-02-08T07:39:25;11.85;;;8.20;;
11279;SDS011;5696;50.928;6.960;2023-02-08T07:41:51;11.35;;;8.57;;
11279;SDS011;5696;50.928;6.960;2023-02-08T07:44:16;10.00;;;8.15;;
11279;SDS011;5696;50.928;6.960;2023-02-08T07:46:42;11.32;;;8.48;;
11279;SDS011;5696;50.928;6.960;2023-02-08T07:49:07;9.75;;;7.85;;
11279;SDS011;5696;50.928;6.960;2023-02-08T07:51:34;12.25;;;7.80;;
11279;SDS011;5696;50.928;6.960;2023-02-08T07:53:59;11.25;;;8.20;;
11279;SDS011;5696;50.928;6.960;2023-02-08T07:56:25;10.90;;;8.13;;
11279;SDS011;5696;50.928;6.960;2023-02-08T07:58:50;11.23;;;7.75;;
11279;SDS011;5696;50.928;6.960;2023-02-08T08:01:16;10.88;;;7.53;;
11279;SDS011;5696;50.928;6.960;2023-02-08T08:03:42;10.77;;;8.30;;
11279;SDS011;5696;50.928;6.960;2023-02-08T08:06:07;12.13;;;8.55;;
11279;SDS011;5696;50.928;6.960;2023-02-08T08:08:33;10.27;;;7.88;;
11279;SDS011;5696;50.928;6.960;2023-02-08T08:10:59;10.88;;;6.80;;
11279;SDS011;5696;50.928;6.960;2023-02-08T08:13:24;9.40;;;7.65;;
11279;SDS011;5696;50.928;6.960;2023-02-08T08:15:50;11.02;;;7.47;;
11279;SDS011;5696;50.928;6.960;2023-02-08T08:18:16;7.82;;;6.95;;
11279;SDS011;5696;50.928;6.960;2023-02-08T08:20:41;8.80;;;6.90;;
11279;SDS011;5696;50.928;6.960;2023-02-08T08:23:07;12.38;;;7.00;;
11279;SDS011;5696;50.928;6.960;2023-02-08T08:25:33;8.23;;;7.28;;
11279;SDS011;5696;50.928;6.960;2023-02-08T08:27:59;8.45;;;6.85;;
11279;SDS011;5696;50.928;6.960;2023-02-08T08:30:26;8.48;;;7.13;;
11279;SDS011;5696;50.928;6.960;2023-02-08T08:32:52;10.18;;;8.23;;
11279;SDS011;5696;50.928;6.960;2023-02-08T08:35:17;8.60;;;7.18;;
11279;SDS011;5696;50.928;6.960;2023-02-08T08:37:43;10.18;;;7.30;;
11279;SDS011;5696;50.928;6.960;2023-02-08T08:40:09;9.10;;;7.18;;
11279;SDS011;5696;50.928;6.960;2023-02-08T08:42:36;9.38;;;7.57;;
11279;SDS011;5696;50.928;6.960;2023-02-08T08:45:04;9.45;;;7.30;;
11279;SDS011;5696;50.928;6.960;2023-02-08T08:47:30;7.90;;;7.10;;
11279;SDS011;5696;50.928;6.960;2023-02-08T08:49:55;17.45;;;8.73;;
11279;SDS011;5696;50.928;6.960;2023-02-08T08:52:21;13.68;;;8.82;;
11279;SDS011;5696;50.928;6.960;2023-02-08T08:54:47;9.65;;;7.28;;
11279;SDS011;5696;50.928;6.960;2023-02-08T08:57:12;10.93;;;8.95;;
11279;SDS011;5696;50.928;6.960;2023-02-08T08:59:38;9.40;;;8.00;;
11279;SDS011;5696;50.928;6.960;2023-02-08T09:02:04;9.13;;;7.18;;
11279;SDS011;5696;50.928;6.960;2023-02-08T09:04:29;8.60;;;7.70;;
11279;SDS011;5696;50.928;6.960;2023-02-08T09:06:55;9.48;;;7.13;;
11279;SDS011;5696;50.928;6.960;2023-02-08T09:09:21;8.75;;;6.47;;
11279;SDS011;5696;50.928;6.960;2023-02-08T09:11:47;9.13;;;6.93;;
11279;SDS011;5696;50.928;6.960;2023-02-08T09:14:13;10.10;;;6.97;;
11279;SDS011;5696;50.928;6.960;2023-02-08T09:16:40;8.23;;;7.30;;
11279;SDS011;5696;50.928;6.960;2023-02-08T09:19:06;8.80;;;6.38;;
11279;SDS011;5696;50.928;6.960;2023-02-08T09:21:33;9.77;;;6.47;;
11279;SDS011;5696;50.928;6.960;2023-02-08T09:24:02;9.18;;;7.25;;
11279;SDS011;5696;50.928;6.960;2023-02-08T09:26:28;8.13;;;6.90;;
11279;SDS011;5696;50.928;6.960;2023-02-08T09:28:54;7.68;;;6.45;;
11279;SDS011;5696;50.928;6.960;2023-02-08T09:33:48;8.60;;;6.30;;
11279;SDS011;5696;50.928;6.960;2023-02-08T09:36:15;10.43;;;6.93;;
11279;SDS011;5696;50.928;6.960;2023-02-08T09:38:43;8.57;;;6.32;;
11279;SDS011;5696;50.928;6.960;2023-02-08T09:46:40;11.38;;;6.75;;
11279;SDS011;5696;50.928;6.960;2023-02-08T09:49:36;10.60;;;7.85;;
11279;SDS011;5696;50.928;6.960;2023-02-08T09:52:09;9.82;;;6.90;;
11279;SDS011;5696;50.928;6.960;2023-02-08T09:54:47;7.82;;;6.65;;
11279;SDS011;5696;50.928;6.960;2023-02-08T09:57:21;7.63;;;6.60;;
11279;SDS011;5696;50.928;6.960;2023-02-08T09:59:56;7.53;;;6.18;;
11279;SDS011;5696;50.928;6.960;2023-02-08T10:02:30;7.32;;;6.30;;
11279;SDS011;5696;50.928;6.960;2023-02-08T10:05:04;8.65;;;6.70;;
11279;SDS011;5696;50.928;6.960;2023-02-08T10:07:35;7.88;;;6.22;;
11279;SDS011;5696;50.928;6.960;2023-02-08T10:10:04;8.43;;;6.22;;
11279;SDS011;5696;50.928;6.960;2023-02-08T10:15:46;9.18;;;6.20;;
11279;SDS011;5696;50.928;6.960;2023-02-08T10:23:51;7.25;;;5.80;;
11279;SDS011;5696;50.928;6.960;2023-02-08T10:26:36;10.95;;;6.38;;
11279;SDS011;5696;50.928;6.960;2023-02-08T10:32:19;9.20;;;6.57;;
11279;SDS011;5696;50.928;6.960;2023-02-08T10:35:10;9.48;;;7.05;;
11279;SDS011;5696;50.928;6.960;2023-02-08T10:37:39;9.40;;;6.75;;
11279;SDS011;5696;50.928;6.960;2023-02-08T10:40:14;7.43;;;6.10;;
11279;SDS011;5696;50.928;6.960;2023-02-08T10:42:47;8.38;;;6.05;;
11279;SDS011;5696;50.928;6.960;2023-02-08T10:45:24;9.80;;;6.78;;
11279;SDS011;5696;50.928;6.960;2023-02-08T10:48:29;8.07;;;6.90;;
11279;SDS011;5696;50.928;6.960;2023-02-08T10:51:15;8.80;;;6.55;;
11279;SDS011;5696;50.928;6.960;2023-02-08T10:53:42;8.48;;;5.90;;
11279;SDS011;5696;50.928;6.960;2023-02-08T10:56:16;8.38;;;5.85;;
11279;SDS011;5696;50.928;6.960;2023-02-08T10:59:05;7.97;;;6.50;;
11279;SDS011;5696;50.928;6.960;2023-02-08T11:01:40;7.57;;;5.65;;
11279;SDS011;5696;50.928;6.960;2023-02-08T11:04:08;6.25;;;5.40;;
11279;SDS011;5696;50.928;6.960;2023-02-08T11:06:36;8.57;;;6.57;;
11279;SDS011;5696;50.928;6.960;2023-02-08T11:09:03;7.30;;;5.47;;
11279;SDS011;5696;50.928;6.960;2023-02-08T11:11:37;7.78;;;5.85;;
11279;SDS011;5696;50.928;6.960;2023-02-08T11:14:08;7.82;;;6.38;;
11279;SDS011;5696;50.928;6.960;2023-02-08T11:16:39;8.18;;;6.10;;
11279;SDS011;5696;50.928;6.960;2023-02-08T11:19:05;7.30;;;6.15;;
11279;SDS011;5696;50.928;6.960;2023-02-08T11:21:32;8.18;;;5.55;;
11279;SDS011;5696;50.928;6.960;2023-02-08T11:24:24;8.80;;;5.60;;
11279;SDS011;5696;50.928;6.960;2023-02-08T11:26:57;6.18;;;5.32;;
11279;SDS011;5696;50.928;6.960;2023-02-08T11:29:25;8.55;;;5.60;;
11279;SDS011;5696;50.928;6.960;2023-02-08T11:34:44;6.88;;;5.38;;
11279;SDS011;5696;50.928;6.960;2023-02-08T11:37:20;5.82;;;4.80;;
11279;SDS011;5696;50.928;6.960;2023-02-08T11:39:53;6.82;;;5.47;;
11279;SDS011;5696;50.928;6.960;2023-02-08T11:42:22;7.68;;;5.43;;
11279;SDS011;5696;50.928;6.960;2023-02-08T11:44:52;6.78;;;5.65;;
11279;SDS011;5696;50.928;6.960;2023-02-08T11:47:23;6.63;;;5.30;;
11279;SDS011;5696;50.928;6.960;2023-02-08T11:49:51;7.30;;;5.30;;
11279;SDS011;5696;50.928;6.960;2023-02-08T11:55:13;5.95;;;5.32;;
11279;SDS011;5696;50.928;6.960;2023-02-08T11:57:56;7.00;;;5.55;;
11279;SDS011;5696;50.928;6.960;2023-02-08T12:00:25;6.47;;;4.93;;
11279;SDS011;5696;50.928;6.960;2023-02-08T12:22:27;4.50;;;4.00;;
11279;SDS011;5696;50.928;6.960;2023-02-08T12:24:58;4.63;;;3.78;;
11279;SDS011;5696;50.928;6.960;2023-02-08T12:30:33;6.47;;;4.50;;
11279;SDS011;5696;50.928;6.960;2023-02-08T12:36:15;7.45;;;3.80;;
11279;SDS011;5696;50.928;6.960;2023-02-08T12:54:07;3.83;;;3.42;;
11279;SDS011;5696;50.928;6.960;2023-02-08T12:56:44;4.05;;;3.58;;
11279;SDS011;5696;50.928;6.960;2023-02-08T12:59:55;4.13;;;3.53;;
11279;SDS011;5696;50.928;6.960;2023-02-08T13:02:31;3.65;;;3.00;;
11279;SDS011;5696;50.928;6.960;2023-02-08T13:05:10;3.83;;;3.42;;
11279;SDS011;5696;50.928;6.960;2023-02-08T13:07:42;4.57;;;3.40;;
11279;SDS011;5696;50.928;6.960;2023-02-08T13:10:21;5.35;;;3.42;;
11279;SDS011;5696;50.928;6.960;2023-02-08T13:12:55;4.88;;;3.55;;
11279;SDS011;5696;50.928;6.960;2023-02-08T13:15:37;4.82;;;3.25;;
11279;SDS011;5696;50.928;6.960;2023-02-08T13:18:10;4.80;;;3.35;;
11279;SDS011;5696;50.928;6.960;2023-02-08T13:20:46;4.78;;;3.45;;
11279;SDS011;5696;50.928;6.960;2023-02-08T13:23:37;5.80;;;3.60;;
11279;SDS011;5696;50.928;6.960;2023-02-08T13:28:37;5.30;;;3.28;;
11279;SDS011;5696;50.928;6.960;2023-02-08T13:31:10;14.88;;;8.43;;
11279;SDS011;5696;50.928;6.960;2023-02-08T13:33:42;3.88;;;3.22;;
11279;SDS011;5696;50.928;6.960;2023-02-08T13:36:34;5.07;;;3.10;;
11279;SDS011;5696;50.928;6.960;2023-02-08T13:39:02;3.60;;;3.30;;
11279;SDS011;5696;50.928;6.960;2023-02-08T13:41:31;3.63;;;3.13;;
11279;SDS011;5696;50.928;6.960;2023-02-08T13:43:59;3.53;;;3.00;;
11279;SDS011;5696;50.928;6.960;2023-02-08T13:46:36;3.38;;;3.03;;
11279;SDS011;5696;50.928;6.960;2023-02-08T14:03:23;3.75;;;3.13;;
11279;SDS011;5696;50.928;6.960;2023-02-08T14:05:53;5.90;;;3.33;;
11279;SDS011;5696;50.928;6.960;2023-02-08T14:13:49;3.67;;;3.00;;
11279;SDS011;5696;50.928;6.960;2023-02-08T14:24:23;4.35;;;3.70;;
11279;SDS011;5696;50.928;6.960;2023-02-08T14:27:08;4.00;;;3.13;;
11279;SDS011;5696;50.928;6.960;2023-02-08T14:29:44;4.07;;;2.85;;
11279;SDS011;5696;50.928;6.960;2023-02-08T14:32:24;3.05;;;2.75;;
11279;SDS011;5696;50.928;6.960;2023-02-08T14:35:05;3.17;;;2.72;;
11279;SDS011;5696;50.928;6.960;2023-02-08T14:37:33;2.63;;;2.42;;
11279;SDS011;5696;50.928;6.960;2023-02-08T14:42:53;3.05;;;2.28;;
11279;SDS011;5696;50.928;6.960;2023-02-08T14:45:25;2.15;;;1.92;;
11279;SDS011;5696;50.928;6.960;2023-02-08T14:48:01;2.70;;;2.33;;
11279;SDS011;5696;50.928;6.960;2023-02-08T14:50:49;3.55;;;2.33;;
11279;SDS011;5696;50.928;6.960;2023-02-08T14:53:28;3.20;;;2.17;;
11279;SDS011;5696;50.928;6.960;2023-02-08T14:56:05;6.55;;;2.33;;
11279;SDS011;5696;50.928;6.960;2023-02-08T14:58:39;3.10;;;2.10;;
11279;SDS011;5696;50.928;6.960;2023-02-08T15:01:18;2.60;;;2.28;;
11279;SDS011;5696;50.928;6.960;2023-02-08T15:03:46;2.65;;;2.13;;
11279;SDS011;5696;50.928;6.960;2023-02-08T15:08:52;4.00;;;2.25;;
11279;SDS011;5696;50.928;6.960;2023-02-08T15:11:23;2.47;;;2.20;;
11279;SDS011;5696;50.928;6.960;2023-02-08T15:13:52;3.35;;;2.40;;
11279;SDS011;5696;50.928;6.960;2023-02-08T15:16:20;2.38;;;2.08;;
11279;SDS011;5696;50.928;6.960;2023-02-08T15:18:48;2.75;;;2.40;;
11279;SDS011;5696;50.928;6.960;2023-02-08T15:21:17;2.25;;;2.05;;
11279;SDS011;5696;50.928;6.960;2023-02-08T15:23:57;2.70;;;2.50;;
11279;SDS011;5696;50.928;6.960;2023-02-08T15:26:24;2.63;;;2.42;;
11279;SDS011;5696;50.928;6.960;2023-02-08T15:28:50;3.25;;;2.22;;
11279;SDS011;5696;50.928;6.960;2023-02-08T15:31:17;2.85;;;2.40;;
11279;SDS011;5696;50.928;6.960;2023-02-08T15:33:46;3.63;;;2.08;;
11279;SDS011;5696;50.928;6.960;2023-02-08T15:36:29;2.58;;;2.25;;
11279;SDS011;5696;50.928;6.960;2023-02-08T15:38:58;3.08;;;2.70;;
11279;SDS011;5696;50.928;6.960;2023-02-08T15:41:34;2.92;;;2.63;;
11279;SDS011;5696;50.928;6.960;2023-02-08T15:44:01;3.20;;;2.78;;
11279;SDS011;5696;50.928;6.960;2023-02-08T15:46:42;4.47;;;2.85;;
11279;SDS011;5696;50.928;6.960;2023-02-08T15:49:31;2.50;;;2.30;;
11279;SDS011;5696;50.928;6.960;2023-02-08T15:52:05;5.78;;;2.53;;
11279;SDS011;5696;50.928;6.960;2023-02-08T15:54:32;4.65;;;3.28;;
11279;SDS011;5696;50.928;6.960;2023-02-08T15:59:27;3.85;;;2.60;;
11279;SDS011;5696;50.928;6.960;2023-02-08T16:01:57;2.88;;;2.60;;
11279;SDS011;5696;50.928;6.960;2023-02-08T16:04:28;3.97;;;2.63;;
11279;SDS011;5696;50.928;6.960;2023-02-08T16:06:55;2.85;;;2.63;;
11279;SDS011;5696;50.928;6.960;2023-02-08T16:09:23;3.08;;;2.55;;
11279;SDS011;5696;50.928;6.960;2023-02-08T16:11:52;3.17;;;2.63;;
11279;SDS011;5696;50.928;6.960;2023-02-08T16:14:24;2.85;;;2.65;;
11279;SDS011;5696;50.928;6.960;2023-02-08T16:16:54;4.28;;;3.22;;
11279;SDS011;5696;50.928;6.960;2023-02-08T16:19:25;39.03;;;25.13;;
11279;SDS011;5696;50.928;6.960;2023-02-08T16:21:53;3.40;;;2.85;;
11279;SDS011;5696;50.928;6.960;2023-02-08T16:24:24;3.35;;;2.90;;
11279;SDS011;5696;50.928;6.960;2023-02-08T16:26:59;8.90;;;3.60;;
11279;SDS011;5696;50.928;6.960;2023-02-08T16:29:33;3.67;;;2.63;;
11279;SDS011;5696;50.928;6.960;2023-02-08T16:32:04;3.33;;;2.88;;
11279;SDS011;5696;50.928;6.960;2023-02-08T16:34:35;3.85;;;2.70;;
11279;SDS011;5696;50.928;6.960;2023-02-08T16:37:03;3.60;;;3.28;;
11279;SDS011;5696;50.928;6.960;2023-02-08T16:39:34;4.72;;;3.40;;
11279;SDS011;5696;50.928;6.960;2023-02-08T16:42:19;4.82;;;3.45;;
11279;SDS011;5696;50.928;6.960;2023-02-08T16:44:59;5.38;;;3.05;;
11279;SDS011;5696;50.928;6.960;2023-02-08T16:47:38;3.97;;;3.35;;
11279;SDS011;5696;50.928;6.960;2023-02-08T16:50:06;4.10;;;3.70;;
11279;SDS011;5696;50.928;6.960;2023-02-08T16:52:33;5.63;;;4.43;;
11279;SDS011;5696;50.928;6.960;2023-02-08T16:55:00;5.68;;;4.63;;
11279;SDS011;5696;50.928;6.960;2023-02-08T16:57:42;5.32;;;3.75;;
11279;SDS011;5696;50.928;6.960;2023-02-08T17:02:54;6.40;;;5.10;;
11279;SDS011;5696;50.928;6.960;2023-02-08T17:05:21;4.32;;;3.90;;
11279;SDS011;5696;50.928;6.960;2023-02-08T17:07:49;5.72;;;4.07;;
11279;SDS011;5696;50.928;6.960;2023-02-08T17:10:22;8.90;;;4.50;;
11279;SDS011;5696;50.928;6.960;2023-02-08T17:12:50;7.00;;;4.93;;
11279;SDS011;5696;50.928;6.960;2023-02-08T17:15:16;8.35;;;4.68;;
11279;SDS011;5696;50.928;6.960;2023-02-08T17:17:43;4.70;;;4.18;;
11279;SDS011;5696;50.928;6.960;2023-02-08T17:20:15;5.15;;;4.28;;
11279;SDS011;5696;50.928;6.960;2023-02-08T17:22:43;4.88;;;4.28;;
11279;SDS011;5696;50.928;6.960;2023-02-08T17:25:09;6.50;;;4.63;;
11279;SDS011;5696;50.928;6.960;2023-02-08T17:27:34;5.68;;;4.90;;
11279;SDS011;5696;50.928;6.960;2023-02-08T17:30:00;5.68;;;4.88;;
11279;SDS011;5696;50.928;6.960;2023-02-08T17:32:28;5.15;;;4.65;;
11279;SDS011;5696;50.928;6.960;2023-02-08T17:34:55;7.03;;;4.90;;
11279;SDS011;5696;50.928;6.960;2023-02-08T17:37:20;6.15;;;5.15;;
11279;SDS011;5696;50.928;6.960;2023-02-08T17:39:47;6.15;;;5.03;;
11279;SDS011;5696;50.928;6.960;2023-02-08T17:42:12;7.57;;;5.05;;
11279;SDS011;5696;50.928;6.960;2023-02-08T17:44:38;7.18;;;5.10;;
11279;SDS011;5696;50.928;6.960;2023-02-08T17:47:03;10.05;;;5.75;;
11279;SDS011;5696;50.928;6.960;2023-02-08T17:49:29;6.95;;;5.07;;
11279;SDS011;5696;50.928;6.960;2023-02-08T17:51:55;7.65;;;5.57;;
11279;SDS011;5696;50.928;6.960;2023-02-08T17:54:21;6.25;;;5.40;;
11279;SDS011;5696;50.928;6.960;2023-02-08T17:56:47;6.55;;;5.85;;
11279;SDS011;5696;50.928;6.960;2023-02-08T17:59:14;8.75;;;5.78;;
11279;SDS011;5696;50.928;6.960;2023-02-08T18:01:40;7.47;;;5.40;;
11279;SDS011;5696;50.928;6.960;2023-02-08T18:04:08;7.45;;;5.85;;
11279;SDS011;5696;50.928;6.960;2023-02-08T18:06:35;7.47;;;5.88;;
11279;SDS011;5696;50.928;6.960;2023-02-08T18:09:01;7.53;;;5.50;;
11279;SDS011;5696;50.928;6.960;2023-02-08T18:11:27;7.18;;;5.68;;
11279;SDS011;5696;50.928;6.960;2023-02-08T18:13:52;9.40;;;5.70;;
11279;SDS011;5696;50.928;6.960;2023-02-08T18:16:22;10.52;;;6.20;;
11279;SDS011;5696;50.928;6.960;2023-02-08T18:18:50;8.13;;;5.82;;
11279;SDS011;5696;50.928;6.960;2023-02-08T18:21:18;6.63;;;5.30;;
11279;SDS011;5696;50.928;6.960;2023-02-08T18:23:45;7.75;;;6.10;;
11279;SDS011;5696;50.928;6.960;2023-02-08T18:26:14;7.40;;;5.82;;
11279;SDS011;5696;50.928;6.960;2023-02-08T18:28:42;8.70;;;6.20;;
11279;SDS011;5696;50.928;6.960;2023-02-08T18:31:10;9.85;;;7.78;;
11279;SDS011;5696;50.928;6.960;2023-02-08T18:33:39;11.48;;;7.57;;
11279;SDS011;5696;50.928;6.960;2023-02-08T18:36:06;8.35;;;6.32;;
11279;SDS011;5696;50.928;6.960;2023-02-08T18:38:35;9.32;;;6.00;;
11279;SDS011;5696;50.928;6.960;2023-02-08T18:41:05;9.77;;;7.05;;
11279;SDS011;5696;50.928;6.960;2023-02-08T18:43:32;12.57;;;8.90;;
11279;SDS011;5696;50.928;6.960;2023-02-08T18:46:01;8.30;;;6.45;;
11279;SDS011;5696;50.928;6.960;2023-02-08T18:48:29;7.82;;;6.05;;
11279;SDS011;5696;50.928;6.960;2023-02-08T18:50:55;8.65;;;6.75;;
11279;SDS011;5696;50.928;6.960;2023-02-08T18:53:22;10.45;;;8.38;;
11279;SDS011;5696;50.928;6.960;2023-02-08T18:55:57;9.90;;;7.15;;
11279;SDS011;5696;50.928;6.960;2023-02-08T18:58:24;7.10;;;5.70;;
11279;SDS011;5696;50.928;6.960;2023-02-08T19:00:51;7.32;;;6.30;;
11279;SDS011;5696;50.928;6.960;2023-02-08T19:03:17;8.50;;;6.90;;
11279;SDS011;5696;50.928;6.960;2023-02-08T19:05:44;9.77;;;7.00;;
11279;SDS011;5696;50.928;6.960;2023-02-08T19:08:10;10.13;;;7.95;;
11279;SDS011;5696;50.928;6.960;2023-02-08T19:10:37;9.88;;;6.47;;
11279;SDS011;5696;50.928;6.960;2023-02-08T19:13:04;9.98;;;8.15;;
11279;SDS011;5696;50.928;6.960;2023-02-08T19:15:34;43.17;;;30.70;;
11279;SDS011;5696;50.928;6.960;2023-02-08T19:18:03;8.95;;;6.55;;
11279;SDS011;5696;50.928;6.960;2023-02-08T19:20:33;14.30;;;10.38;;
11279;SDS011;5696;50.928;6.960;2023-02-08T19:23:02;9.43;;;8.15;;
11279;SDS011;5696;50.928;6.960;2023-02-08T19:25:29;7.30;;;6.00;;
11279;SDS011;5696;50.928;6.960;2023-02-08T19:27:55;20.35;;;9.63;;
11279;SDS011;5696;50.928;6.960;2023-02-08T19:30:20;8.95;;;6.90;;
11279;SDS011;5696;50.928;6.960;2023-02-08T19:32:46;17.13;;;12.65;;
11279;SDS011;5696;50.928;6.960;2023-02-08T19:35:12;10.13;;;6.70;;
11279;SDS011;5696;50.928;6.960;2023-02-08T19:37:38;9.10;;;7.43;;
11279;SDS011;5696;50.928;6.960;2023-02-08T19:40:05;12.82;;;8.52;;
11279;SDS011;5696;50.928;6.960;2023-02-08T19:42:31;10.13;;;8.02;;
11279;SDS011;5696;50.928;6.960;2023-02-08T19:44:57;8.45;;;7.50;;
11279;SDS011;5696;50.928;6.960;2023-02-08T19:47:23;10.60;;;7.60;;
11279;SDS011;5696;50.928;6.960;2023-02-08T19:49:53;10.25;;;7.30;;
11279;SDS011;5696;50.928;6.960;2023-02-08T19:52:18;9.05;;;6.90;;
11279;SDS011;5696;50.928;6.960;2023-02-08T19:54:47;10.55;;;7.28;;
11279;SDS011;5696;50.928;6.960;2023-02-08T19:57:13;11.07;;;8.80;;
11279;SDS011;5696;50.928;6.960;2023-02-08T19:59:40;10.65;;;7.30;;
11279;SDS011;5696;50.928;6.960;2023-02-08T20:02:10;8.73;;;6.40;;
11279;SDS011;5696;50.928;6.960;2023-02-08T20:04:37;12.15;;;7.65;;
11279;SDS011;5696;50.928;6.960;2023-02-08T20:07:04;10.02;;;7.10;;
11279;SDS011;5696;50.928;6.960;2023-02-08T20:09:31;8.77;;;7.20;;
11279;SDS011;5696;50.928;6.960;2023-02-08T20:11:57;9.30;;;7.18;;
11279;SDS011;5696;50.928;6.960;2023-02-08T20:14:24;9.05;;;7.07;;
11279;SDS011;5696;50.928;6.960;2023-02-08T20:16:53;9.00;;;7.10;;
11279;SDS011;5696;50.928;6.960;2023-02-08T20:19:19;9.40;;;7.65;;
11279;SDS011;5696;50.928;6.960;2023-02-08T20:21:44;9.90;;;8.05;;
11279;SDS011;5696;50.928;6.960;2023-02-08T20:24:10;11.40;;;7.70;;
11279;SDS011;5696;50.928;6.960;2023-02-08T20:26:41;9.52;;;7.00;;
11279;SDS011;5696;50.928;6.960;2023-02-08T20:29:08;9.27;;;6.60;;
11279;SDS011;5696;50.928;6.960;2023-02-08T20:31:35;10.40;;;7.65;;
11279;SDS011;5696;50.928;6.960;2023-02-08T20:34:03;10.35;;;7.57;;
11279;SDS011;5696;50.928;6.960;2023-02-08T20:36:32;12.18;;;7.95;;
11279;SDS011;5696;50.928;6.960;2023-02-08T20:39:04;8.98;;;7.22;;
11279;SDS011;5696;50.928;6.960;2023-02-08T20:41:30;8.77;;;6.72;;
11279;SDS011;5696;50.928;6.960;2023-02-08T20:43:58;11.23;;;7.10;;
11279;SDS011;5696;50.928;6.960;2023-02-08T20:46:28;8.82;;;6.70;;
11279;SDS011;5696;50.928;6.960;2023-02-08T20:48:56;8.80;;;7.35;;
11279;SDS011;5696;50.928;6.960;2023-02-08T20:51:24;8.77;;;7.15;;
11279;SDS011;5696;50.928;6.960;2023-02-08T20:53:52;8.85;;;7.28;;
11279;SDS011;5696;50.928;6.960;2023-02-08T20:56:19;9.90;;;6.93;;
11279;SDS011;5696;50.928;6.960;2023-02-08T20:58:47;9.02;;;7.20;;
11279;SDS011;5696;50.928;6.960;2023-02-08T21:01:17;10.35;;;6.93;;
11279;SDS011;5696;50.928;6.960;2023-02-08T21:03:48;10.10;;;7.05;;
11279;SDS011;5696;50.928;6.960;2023-02-08T21:06:18;10.05;;;7.20;;
11279;SDS011;5696;50.928;6.960;2023-02-08T21:08:46;10.93;;;7.50;;
11279;SDS011;5696;50.928;6.960;2023-02-08T21:11:16;9.52;;;7.40;;
11279;SDS011;5696;50.928;6.960;2023-02-08T21:13:44;10.68;;;7.50;;
11279;SDS011;5696;50.928;6.960;2023-02-08T21:16:09;10.63;;;7.40;;
11279;SDS011;5696;50.928;6.960;2023-02-08T21:18:36;8.70;;;7.45;;
11279;SDS011;5696;50.928;6.960;2023-02-08T21:21:05;9.13;;;7.28;;
11279;SDS011;5696;50.928;6.960;2023-02-08T21:23:31;10.52;;;7.53;;
11279;SDS011;5696;50.928;6.960;2023-02-08T21:25:58;11.30;;;8.10;;
11279;SDS011;5696;50.928;6.960;2023-02-08T21:28:24;10.32;;;7.65;;
11279;SDS011;5696;50.928;6.960;2023-02-08T21:30:54;10.52;;;6.68;;
11279;SDS011;5696;50.928;6.960;2023-02-08T21:33:20;12.93;;;7.55;;
11279;SDS011;5696;50.928;6.960;2023-02-08T21:35:46;10.65;;;8.05;;
11279;SDS011;5696;50.928;6.960;2023-02-08T21:38:11;12.50;;;8.30;;
11279;SDS011;5696;50.928;6.960;2023-02-08T21:40:37;10.82;;;9.07;;
11279;SDS011;5696;50.928;6.960;2023-02-08T21:43:02;17.15;;;13.98;;
11279;SDS011;5696;50.928;6.960;2023-02-08T21:45:28;34.28;;;25.85;;
11279;SDS011;5696;50.928;6.960;2023-02-08T21:47:54;32.90;;;24.42;;
11279;SDS011;5696;50.928;6.960;2023-02-08T21:50:20;23.70;;;15.90;;
11279;SDS011;5696;50.928;6.960;2023-02-08T21:53:04;15.07;;;9.95;;
11279;SDS011;5696;50.928;6.960;2023-02-08T21:55:49;35.22;;;23.60;;
11279;SDS011;5696;50.928;6.960;2023-02-08T21:58:14;28.15;;;19.63;;
11279;SDS011;5696;50.928;6.960;2023-02-08T22:00:40;17.10;;;11.75;;
11279;SDS011;5696;50.928;6.960;2023-02-08T22:03:06;12.40;;;9.35;;
11279;SDS011;5696;50.928;6.960;2023-02-08T22:05:31;12.48;;;8.95;;
11279;SDS011;5696;50.928;6.960;2023-02-08T22:07:57;10.52;;;8.23;;
11279;SDS011;5696;50.928;6.960;2023-02-08T22:10:24;10.73;;;8.02;;
11279;SDS011;5696;50.928;6.960;2023-02-08T22:12:52;13.73;;;8.68;;
11279;SDS011;5696;50.928;6.960;2023-02-08T22:15:19;9.07;;;7.70;;
11279;SDS011;5696;50.928;6.960;2023-02-08T22:17:46;12.15;;;7.93;;
11279;SDS011;5696;50.928;6.960;2023-02-08T22:20:15;9.88;;;7.80;;
11279;SDS011;5696;50.928;6.960;2023-02-08T22:22:41;10.95;;;7.97;;
11279;SDS011;5696;50.928;6.960;2023-02-08T22:25:06;9.80;;;7.97;;
11279;SDS011;5696;50.928;6.960;2023-02-08T22:27:33;10.02;;;7.45;;
11279;SDS011;5696;50.928;6.960;2023-02-08T22:29:58;8.57;;;6.90;;
11279;SDS011;5696;50.928;6.960;2023-02-08T22:32:24;8.73;;;7.18;;
11279;SDS011;5696;50.928;6.960;2023-02-08T22:34:50;9.38;;;7.10;;
11279;SDS011;5696;50.928;6.960;2023-02-08T22:37:15;12.30;;;7.70;;
11279;SDS011;5696;50.928;6.960;2023-02-08T22:39:41;9.45;;;7.10;;
11279;SDS011;5696;50.928;6.960;2023-02-08T22:42:07;8.95;;;7.10;;
11279;SDS011;5696;50.928;6.960;2023-02-08T22:44:36;8.18;;;6.57;;
11279;SDS011;5696;50.928;6.960;2023-02-08T22:47:04;13.23;;;9.88;;
11279;SDS011;5696;50.928;6.960;2023-02-08T22:49:31;10.05;;;7.63;;
11279;SDS011;5696;50.928;6.960;2023-02-08T22:51:57;10.90;;;7.97;;
11279;SDS011;5696;50.928;6.960;2023-02-08T22:54:24;9.18;;;6.97;;
11279;SDS011;5696;50.928;6.960;2023-02-08T22:56:49;10.32;;;7.13;;